sensor_id;sensor_type;location;lat;lon;timestamp;pressure;altitude;pressure_sealevel;temperature
48362;BMP280;34510;51.888;5.670;2023-04-25T00:00:00;101006.31;;;8.77
48362;BMP280;34510;51.888;5.670;2023-04-25T00:05:13;101009.72;;;8.65
48362;BMP280;34510;51.888;5.670;2023-04-25T00:10:19;101002.63;;;8.47
48362;BMP280;34510;51.888;5.670;2023-04-25T00:15:26;101005.63;;;8.30
48362;BMP280;34510;51.888;5.670;2023-04-25T00:20:27;101017.19;;;8.79
48362;BMP280;34510;51.888;5.670;2023-04-25T00:25:30;101022.28;;;8.52
48362;BMP280;34510;51.888;5.670;2023-04-25T00:30:32;101034.78;;;8.63
48362;BMP280;34510;51.888;5.670;2023-04-25T00:35:35;101041.84;;;8.66
48362;BMP280;34510;51.888;5.670;2023-04-25T00:40:37;101042.41;;;8.61
48362;BMP280;34510;51.888;5.670;2023-04-25T00:45:40;101033.72;;;8.41
48362;BMP280;34510;51.888;5.670;2023-04-25T00:50:52;101041.50;;;8.46
48362;BMP280;34510;51.888;5.670;2023-04-25T00:55:55;101039.91;;;8.51
48362;BMP280;34510;51.888;5.670;2023-04-25T01:00:57;101036.69;;;8.63
48362;BMP280;34510;51.888;5.670;2023-04-25T01:05:59;101051.25;;;8.25
48362;BMP280;34510;51.888;5.670;2023-04-25T01:11:02;101047.81;;;8.54
48362;BMP280;34510;51.888;5.670;2023-04-25T01:16:06;101043.00;;;8.17
48362;BMP280;34510;51.888;5.670;2023-04-25T01:21:10;101053.63;;;8.37
48362;BMP280;34510;51.888;5.670;2023-04-25T01:26:15;101051.34;;;8.40
48362;BMP280;34510;51.888;5.670;2023-04-25T01:31:21;101056.47;;;8.51
48362;BMP280;34510;51.888;5.670;2023-04-25T01:36:27;101064.47;;;8.46
48362;BMP280;34510;51.888;5.670;2023-04-25T01:41:30;101057.56;;;8.42
48362;BMP280;34510;51.888;5.670;2023-04-25T01:46:33;101068.94;;;8.47
48362;BMP280;34510;51.888;5.670;2023-04-25T01:51:51;101083.09;;;8.52
48362;BMP280;34510;51.888;5.670;2023-04-25T01:56:56;101081.25;;;8.37
48362;BMP280;34510;51.888;5.670;2023-04-25T02:01:59;101078.72;;;8.58
48362;BMP280;34510;51.888;5.670;2023-04-25T02:07:07;101093.78;;;7.85
48362;BMP280;34510;51.888;5.670;2023-04-25T02:12:28;101101.44;;;7.59
48362;BMP280;34510;51.888;5.670;2023-04-25T02:17:49;101100.56;;;7.58
48362;BMP280;34510;51.888;5.670;2023-04-25T02:22:54;101104.22;;;7.51
48362;BMP280;34510;51.888;5.670;2023-04-25T02:28:02;101103.41;;;7.10
48362;BMP280;34510;51.888;5.670;2023-04-25T02:33:09;101104.63;;;7.23
48362;BMP280;34510;51.888;5.670;2023-04-25T02:38:11;101102.53;;;7.09
48362;BMP280;34510;51.888;5.670;2023-04-25T02:43:14;101102.53;;;7.09
48362;BMP280;34510;51.888;5.670;2023-04-25T02:48:18;101106.53;;;6.98
48362;BMP280;34510;51.888;5.670;2023-04-25T02:53:20;101106.69;;;6.97
48362;BMP280;34510;51.888;5.670;2023-04-25T02:58:27;101107.22;;;6.92
48362;BMP280;34510;51.888;5.670;2023-04-25T03:03:49;101104.97;;;6.96
48362;BMP280;34510;51.888;5.670;2023-04-25T03:08:52;101111.88;;;6.84
48362;BMP280;34510;51.888;5.670;2023-04-25T03:13:54;101106.19;;;6.85
48362;BMP280;34510;51.888;5.670;2023-04-25T03:18:57;101120.81;;;6.94
48362;BMP280;34510;51.888;5.670;2023-04-25T03:24:02;101114.44;;;6.77
48362;BMP280;34510;51.888;5.670;2023-04-25T03:29:07;101114.44;;;6.93
48362;BMP280;34510;51.888;5.670;2023-04-25T03:34:10;101120.81;;;6.94
48362;BMP280;34510;51.888;5.670;2023-04-25T03:39:12;101130.31;;;7.16
48362;BMP280;34510;51.888;5.670;2023-04-25T03:44:21;101126.72;;;7.15
48362;BMP280;34510;51.888;5.670;2023-04-25T03:49:27;101120.63;;;7.36
48362;BMP280;34510;51.888;5.670;2023-04-25T03:54:51;101129.44;;;7.40
48362;BMP280;34510;51.888;5.670;2023-04-25T03:59:56;101129.25;;;7.41
48362;BMP280;34510;51.888;5.670;2023-04-25T04:04:59;101131.69;;;7.36
48362;BMP280;34510;51.888;5.670;2023-04-25T04:10:06;101136.16;;;7.13
48362;BMP280;34510;51.888;5.670;2023-04-25T04:15:12;101148.41;;;7.35
48362;BMP280;34510;51.888;5.670;2023-04-25T04:20:17;101153.69;;;7.69
48362;BMP280;34510;51.888;5.670;2023-04-25T04:25:23;101162.34;;;7.49
48362;BMP280;34510;51.888;5.670;2023-04-25T04:30:56;101157.84;;;7.64
48362;BMP280;34510;51.888;5.670;2023-04-25T04:35:59;101161.13;;;7.60
48362;BMP280;34510;51.888;5.670;2023-04-25T04:41:02;101171.66;;;7.56
48362;BMP280;34510;51.888;5.670;2023-04-25T04:46:23;101168.19;;;7.62
48362;BMP280;34510;51.888;5.670;2023-04-25T04:51:47;101186.28;;;7.65
48362;BMP280;34510;51.888;5.670;2023-04-25T04:57:27;101191.81;;;7.65
48362;BMP280;34510;51.888;5.670;2023-04-25T05:02:56;101196.78;;;7.78
48362;BMP280;34510;51.888;5.670;2023-04-25T05:08:25;101196.28;;;7.90
48362;BMP280;34510;51.888;5.670;2023-04-25T05:14:06;101208.03;;;7.84
48362;BMP280;34510;51.888;5.670;2023-04-25T05:19:18;101211.44;;;8.03
48362;BMP280;34510;51.888;5.670;2023-04-25T05:24:47;101230.94;;;8.01
48362;BMP280;34510;51.888;5.670;2023-04-25T05:30:21;101238.78;;;8.28
48362;BMP280;34510;51.888;5.670;2023-04-25T05:35:43;101237.00;;;7.97
48362;BMP280;34510;51.888;5.670;2023-04-25T05:40:46;101249.69;;;8.22
48362;BMP280;34510;51.888;5.670;2023-04-25T05:46:15;101250.72;;;8.21
48362;BMP280;34510;51.888;5.670;2023-04-25T05:51:55;101252.97;;;8.34
48362;BMP280;34510;51.888;5.670;2023-04-25T05:57:23;101263.97;;;8.42
48362;BMP280;34510;51.888;5.670;2023-04-25T06:02:37;101274.53;;;8.46
48362;BMP280;34510;51.888;5.670;2023-04-25T06:08:03;101278.31;;;8.84
48362;BMP280;34510;51.888;5.670;2023-04-25T06:13:15;101289.63;;;8.75
48362;BMP280;34510;51.888;5.670;2023-04-25T06:18:17;101283.00;;;8.84
48362;BMP280;34510;51.888;5.670;2023-04-25T06:23:36;101288.81;;;8.97
48362;BMP280;34510;51.888;5.670;2023-04-25T06:28:41;101284.06;;;9.37
48362;BMP280;34510;51.888;5.670;2023-04-25T06:33:43;101285.97;;;9.59
48362;BMP280;34510;51.888;5.670;2023-04-25T06:38:45;101288.56;;;9.07
48362;BMP280;34510;51.888;5.670;2023-04-25T06:43:47;101294.56;;;9.64
48362;BMP280;34510;51.888;5.670;2023-04-25T06:49:03;101310.88;;;9.59
48362;BMP280;34510;51.888;5.670;2023-04-25T06:54:13;101311.78;;;9.97
48362;BMP280;34510;51.888;5.670;2023-04-25T06:59:26;101311.25;;;10.16
48362;BMP280;34510;51.888;5.670;2023-04-25T07:04:29;101319.31;;;9.89
48362;BMP280;34510;51.888;5.670;2023-04-25T07:09:35;101330.03;;;10.29
48362;BMP280;34510;51.888;5.670;2023-04-25T07:14:39;101336.66;;;10.43
48362;BMP280;34510;51.888;5.670;2023-04-25T07:19:44;101331.22;;;10.50
48362;BMP280;34510;51.888;5.670;2023-04-25T07:24:46;101340.41;;;10.12
48362;BMP280;34510;51.888;5.670;2023-04-25T07:29:53;101345.03;;;10.20
48362;BMP280;34510;51.888;5.670;2023-04-25T07:34:58;101338.00;;;10.62
48362;BMP280;34510;51.888;5.670;2023-04-25T07:40:03;101347.06;;;11.00
48362;BMP280;34510;51.888;5.670;2023-04-25T07:45:08;101353.78;;;10.91
48362;BMP280;34510;51.888;5.670;2023-04-25T07:50:13;101375.69;;;11.15
48362;BMP280;34510;51.888;5.670;2023-04-25T07:55:24;101371.06;;;11.58
48362;BMP280;34510;51.888;5.670;2023-04-25T08:00:52;101377.31;;;10.95
48362;BMP280;34510;51.888;5.670;2023-04-25T08:06:23;101385.44;;;10.52
48362;BMP280;34510;51.888;5.670;2023-04-25T08:11:47;101389.78;;;10.32
48362;BMP280;34510;51.888;5.670;2023-04-25T08:16:53;101396.09;;;10.26
48362;BMP280;34510;51.888;5.670;2023-04-25T08:21:56;101389.09;;;11.11
48362;BMP280;34510;51.888;5.670;2023-04-25T08:27:05;101392.78;;;11.69
48362;BMP280;34510;51.888;5.670;2023-04-25T08:32:13;101396.69;;;12.11
48362;BMP280;34510;51.888;5.670;2023-04-25T08:37:25;101405.81;;;11.33
48362;BMP280;34510;51.888;5.670;2023-04-25T08:42:33;101402.44;;;12.10
48362;BMP280;34510;51.888;5.670;2023-04-25T08:47:39;101421.25;;;11.21
48362;BMP280;34510;51.888;5.670;2023-04-25T08:52:45;101428.25;;;11.67
48362;BMP280;34510;51.888;5.670;2023-04-25T08:57:49;101436.22;;;11.70
48362;BMP280;34510;51.888;5.670;2023-04-25T09:02:52;101438.78;;;12.08
48362;BMP280;34510;51.888;5.670;2023-04-25T09:07:55;101447.53;;;12.76
48362;BMP280;34510;51.888;5.670;2023-04-25T09:13:12;101459.56;;;12.55
48362;BMP280;34510;51.888;5.670;2023-04-25T09:18:35;101467.00;;;12.26
48362;BMP280;34510;51.888;5.670;2023-04-25T09:23:43;101483.16;;;11.80
48362;BMP280;34510;51.888;5.670;2023-04-25T09:28:45;101483.25;;;11.72
48362;BMP280;34510;51.888;5.670;2023-04-25T09:34:00;101495.25;;;11.14
48362;BMP280;34510;51.888;5.670;2023-04-25T09:39:12;101491.19;;;11.90
48362;BMP280;34510;51.888;5.670;2023-04-25T09:44:35;101498.72;;;11.16
48362;BMP280;34510;51.888;5.670;2023-04-25T09:49:42;101496.78;;;12.32
48362;BMP280;34510;51.888;5.670;2023-04-25T09:54:49;101502.50;;;11.73
48362;BMP280;34510;51.888;5.670;2023-04-25T10:00:00;101494.75;;;11.84
48362;BMP280;34510;51.888;5.670;2023-04-25T10:05:15;101506.97;;;12.04
48362;BMP280;34510;51.888;5.670;2023-04-25T10:10:18;101498.72;;;13.02
48362;BMP280;34510;51.888;5.670;2023-04-25T10:15:21;101503.16;;;12.26
48362;BMP280;34510;51.888;5.670;2023-04-25T10:20:24;101509.88;;;11.96
48362;BMP280;34510;51.888;5.670;2023-04-25T10:25:26;101514.19;;;11.98
48362;BMP280;34510;51.888;5.670;2023-04-25T10:30:31;101513.44;;;11.90
48362;BMP280;34510;51.888;5.670;2023-04-25T10:35:34;101510.69;;;12.11
48362;BMP280;34510;51.888;5.670;2023-04-25T10:40:36;101516.78;;;12.21
48362;BMP280;34510;51.888;5.670;2023-04-25T10:45:52;101520.22;;;12.23
48362;BMP280;34510;51.888;5.670;2023-04-25T10:51:16;101535.00;;;11.73
48362;BMP280;34510;51.888;5.670;2023-04-25T10:56:37;101537.97;;;11.71
48362;BMP280;34510;51.888;5.670;2023-04-25T11:01:46;101546.66;;;11.68
48362;BMP280;34510;51.888;5.670;2023-04-25T11:07:07;101538.16;;;12.35
48362;BMP280;34510;51.888;5.670;2023-04-25T11:12:12;101543.66;;;13.21
48362;BMP280;34510;51.888;5.670;2023-04-25T11:17:14;101540.75;;;12.86
48362;BMP280;34510;51.888;5.670;2023-04-25T11:22:19;101536.53;;;13.81
48362;BMP280;34510;51.888;5.670;2023-04-25T11:27:25;101541.03;;;13.47
48362;BMP280;34510;51.888;5.670;2023-04-25T11:32:27;101552.38;;;12.68
48362;BMP280;34510;51.888;5.670;2023-04-25T11:37:29;101550.47;;;12.48
48362;BMP280;34510;51.888;5.670;2023-04-25T11:42:34;101547.16;;;12.59
48362;BMP280;34510;51.888;5.670;2023-04-25T11:47:40;101538.91;;;13.84
48362;BMP280;34510;51.888;5.670;2023-04-25T11:52:47;101548.91;;;13.37
48362;BMP280;34510;51.888;5.670;2023-04-25T11:57:50;101546.06;;;14.06
48362;BMP280;34510;51.888;5.670;2023-04-25T12:02:56;101553.75;;;12.79
48362;BMP280;34510;51.888;5.670;2023-04-25T12:08:13;101558.81;;;12.69
48362;BMP280;34510;51.888;5.670;2023-04-25T12:13:24;101569.03;;;13.32
48362;BMP280;34510;51.888;5.670;2023-04-25T12:18:27;101586.09;;;12.23
48362;BMP280;34510;51.888;5.670;2023-04-25T12:23:32;101581.78;;;12.56
48362;BMP280;34510;51.888;5.670;2023-04-25T12:28:34;101592.84;;;12.50
48362;BMP280;34510;51.888;5.670;2023-04-25T12:33:42;101587.28;;;12.14
48362;BMP280;34510;51.888;5.670;2023-04-25T12:38:45;101588.88;;;13.23
48362;BMP280;34510;51.888;5.670;2023-04-25T12:43:47;101602.75;;;13.44
48362;BMP280;34510;51.888;5.670;2023-04-25T12:48:50;101598.25;;;13.43
48362;BMP280;34510;51.888;5.670;2023-04-25T12:53:52;101590.09;;;14.17
48362;BMP280;34510;51.888;5.670;2023-04-25T12:58:54;101591.94;;;13.97
48362;BMP280;34510;51.888;5.670;2023-04-25T13:03:57;101591.53;;;13.10
48362;BMP280;34510;51.888;5.670;2023-04-25T13:09:02;101599.41;;;12.85
48362;BMP280;34510;51.888;5.670;2023-04-25T13:14:06;101605.72;;;12.72
48362;BMP280;34510;51.888;5.670;2023-04-25T13:19:08;101603.50;;;12.10
48362;BMP280;34510;51.888;5.670;2023-04-25T13:24:13;101607.59;;;12.14
48362;BMP280;34510;51.888;5.670;2023-04-25T13:29:15;101601.09;;;13.22
48362;BMP280;34510;51.888;5.670;2023-04-25T13:34:17;101601.81;;;12.30
48362;BMP280;34510;51.888;5.670;2023-04-25T13:39:19;101588.75;;;13.10
48362;BMP280;34510;51.888;5.670;2023-04-25T13:44:21;101596.03;;;12.47
48362;BMP280;34510;51.888;5.670;2023-04-25T13:49:23;101602.66;;;12.67
48362;BMP280;34510;51.888;5.670;2023-04-25T13:54:25;101605.44;;;13.31
48362;BMP280;34510;51.888;5.670;2023-04-25T13:59:28;101601.06;;;13.50
48362;BMP280;34510;51.888;5.670;2023-04-25T14:04:32;101599.56;;;13.19
48362;BMP280;34510;51.888;5.670;2023-04-25T14:09:40;101596.06;;;13.67
48362;BMP280;34510;51.888;5.670;2023-04-25T14:14:42;101611.66;;;12.48
48362;BMP280;34510;51.888;5.670;2023-04-25T14:19:44;101608.44;;;12.29
48362;BMP280;34510;51.888;5.670;2023-04-25T14:24:49;101609.88;;;12.25
48362;BMP280;34510;51.888;5.670;2023-04-25T14:29:51;101624.28;;;12.14
48362;BMP280;34510;51.888;5.670;2023-04-25T14:34:52;101614.72;;;11.72
48362;BMP280;34510;51.888;5.670;2023-04-25T14:39:58;101618.84;;;11.77
48362;BMP280;34510;51.888;5.670;2023-04-25T14:44:59;101623.41;;;12.28
48362;BMP280;34510;51.888;5.670;2023-04-25T14:50:20;101627.06;;;12.14
48362;BMP280;34510;51.888;5.670;2023-04-25T14:55:22;101620.38;;;11.94
48362;BMP280;34510;51.888;5.670;2023-04-25T15:00:25;101616.38;;;11.96
48362;BMP280;34510;51.888;5.670;2023-04-25T15:05:28;101620.88;;;11.97
48362;BMP280;34510;51.888;5.670;2023-04-25T15:10:33;101623.88;;;11.58
48362;BMP280;34510;51.888;5.670;2023-04-25T15:15:35;101634.28;;;12.09
48362;BMP280;34510;51.888;5.670;2023-04-25T15:20:37;101638.59;;;11.82
48362;BMP280;34510;51.888;5.670;2023-04-25T15:25:39;101639.34;;;12.05
48362;BMP280;34510;51.888;5.670;2023-04-25T15:30:48;101633.88;;;12.12
48362;BMP280;34510;51.888;5.670;2023-04-25T15:35:51;101641.28;;;11.90
48362;BMP280;34510;51.888;5.670;2023-04-25T15:40:54;101642.81;;;11.78
48362;BMP280;34510;51.888;5.670;2023-04-25T15:45:57;101651.06;;;11.86
48362;BMP280;34510;51.888;5.670;2023-04-25T15:51:00;101654.91;;;11.85
48362;BMP280;34510;51.888;5.670;2023-04-25T15:56:03;101658.91;;;12.12
48362;BMP280;34510;51.888;5.670;2023-04-25T16:01:06;101650.66;;;12.18
48362;BMP280;34510;51.888;5.670;2023-04-25T16:06:08;101662.56;;;11.83
48362;BMP280;34510;51.888;5.670;2023-04-25T16:11:11;101674.66;;;11.52
48362;BMP280;34510;51.888;5.670;2023-04-25T16:16:15;101675.75;;;11.28
48362;BMP280;34510;51.888;5.670;2023-04-25T16:21:17;101680.94;;;11.31
48362;BMP280;34510;51.888;5.670;2023-04-25T16:26:20;101674.94;;;11.57
48362;BMP280;34510;51.888;5.670;2023-04-25T16:31:23;101675.34;;;11.17
48362;BMP280;34510;51.888;5.670;2023-04-25T16:36:25;101682.69;;;11.09
48362;BMP280;34510;51.888;5.670;2023-04-25T16:41:29;101687.41;;;11.24
48362;BMP280;34510;51.888;5.670;2023-04-25T16:46:31;101690.38;;;11.22
48362;BMP280;34510;51.888;5.670;2023-04-25T16:51:35;101683.00;;;11.15
48362;BMP280;34510;51.888;5.670;2023-04-25T16:56:37;101695.53;;;11.10
48362;BMP280;34510;51.888;5.670;2023-04-25T17:01:39;101695.63;;;10.94
48362;BMP280;34510;51.888;5.670;2023-04-25T17:06:43;101691.13;;;10.93
48362;BMP280;34510;51.888;5.670;2023-04-25T17:11:46;101702.75;;;10.66
48362;BMP280;34510;51.888;5.670;2023-04-25T17:16:48;101709.06;;;10.52
48362;BMP280;34510;51.888;5.670;2023-04-25T17:21:50;101711.22;;;10.33
48362;BMP280;34510;51.888;5.670;2023-04-25T17:26:52;101724.72;;;10.36
48362;BMP280;34510;51.888;5.670;2023-04-25T17:32:02;101736.50;;;10.46
48362;BMP280;34510;51.888;5.670;2023-04-25T17:37:06;101738.81;;;10.66
48362;BMP280;34510;51.888;5.670;2023-04-25T17:42:12;101743.91;;;10.54
48362;BMP280;34510;51.888;5.670;2023-04-25T17:47:16;101740.31;;;10.45
48362;BMP280;34510;51.888;5.670;2023-04-25T17:52:18;101746.13;;;10.59
48362;BMP280;34510;51.888;5.670;2023-04-25T17:57:20;101743.59;;;10.80
48362;BMP280;34510;51.888;5.670;2023-04-25T18:02:23;101755.06;;;10.30
48362;BMP280;34510;51.888;5.670;2023-04-25T18:07:26;101751.94;;;10.41
48362;BMP280;34510;51.888;5.670;2023-04-25T18:12:32;101760.94;;;10.35
48362;BMP280;34510;51.888;5.670;2023-04-25T18:17:36;101763.59;;;10.20
48362;BMP280;34510;51.888;5.670;2023-04-25T18:22:45;101769.19;;;9.96
48362;BMP280;34510;51.888;5.670;2023-04-25T18:27:51;101783.59;;;9.83
48362;BMP280;34510;51.888;5.670;2023-04-25T18:32:54;101783.44;;;9.76
48362;BMP280;34510;51.888;5.670;2023-04-25T18:37:56;101779.06;;;9.90
48362;BMP280;34510;51.888;5.670;2023-04-25T18:42:58;101788.44;;;9.81
48362;BMP280;34510;51.888;5.670;2023-04-25T18:48:02;101788.94;;;9.52
48362;BMP280;34510;51.888;5.670;2023-04-25T18:53:04;101794.31;;;9.70
48362;BMP280;34510;51.888;5.670;2023-04-25T18:58:06;101805.22;;;9.63
48362;BMP280;34510;51.888;5.670;2023-04-25T19:03:09;101814.03;;;9.42
48362;BMP280;34510;51.888;5.670;2023-04-25T19:08:13;101811.78;;;9.38
48362;BMP280;34510;51.888;5.670;2023-04-25T19:13:15;101817.69;;;9.35
48362;BMP280;34510;51.888;5.670;2023-04-25T19:18:17;101827.69;;;9.28
48362;BMP280;34510;51.888;5.670;2023-04-25T19:23:20;101831.78;;;9.07
48362;BMP280;34510;51.888;5.670;2023-04-25T19:28:43;101831.13;;;9.13
48362;BMP280;34510;51.888;5.670;2023-04-25T19:33:54;101833.44;;;9.42
48362;BMP280;34510;51.888;5.670;2023-04-25T19:38:57;101837.72;;;9.12
48362;BMP280;34510;51.888;5.670;2023-04-25T19:44:08;101835.94;;;9.03
48362;BMP280;34510;51.888;5.670;2023-04-25T19:49:11;101843.16;;;8.88
48362;BMP280;34510;51.888;5.670;2023-04-25T19:54:13;101842.81;;;8.91
48362;BMP280;34510;51.888;5.670;2023-04-25T19:59:15;101854.53;;;8.77
48362;BMP280;34510;51.888;5.670;2023-04-25T20:04:17;101847.03;;;8.61
48362;BMP280;34510;51.888;5.670;2023-04-25T20:09:19;101856.31;;;8.52
48362;BMP280;34510;51.888;5.670;2023-04-25T20:14:22;101843.69;;;8.49
48362;BMP280;34510;51.888;5.670;2023-04-25T20:19:39;101857.75;;;8.38
48362;BMP280;34510;51.888;5.670;2023-04-25T20:24:41;101861.44;;;8.21
48362;BMP280;34510;51.888;5.670;2023-04-25T20:29:44;101864.50;;;8.36
48362;BMP280;34510;51.888;5.670;2023-04-25T20:34:46;101867.78;;;8.13
48362;BMP280;34510;51.888;5.670;2023-04-25T20:39:49;101866.94;;;8.21
48362;BMP280;34510;51.888;5.670;2023-04-25T20:44:51;101868.69;;;8.22
48362;BMP280;34510;51.888;5.670;2023-04-25T20:49:54;101866.84;;;8.05
48362;BMP280;34510;51.888;5.670;2023-04-25T20:54:55;101870.84;;;8.10
48362;BMP280;34510;51.888;5.670;2023-04-25T21:00:00;101868.63;;;7.88
48362;BMP280;34510;51.888;5.670;2023-04-25T21:05:19;101875.34;;;7.85
48362;BMP280;34510;51.888;5.670;2023-04-25T21:10:26;101878.06;;;8.03
48362;BMP280;34510;51.888;5.670;2023-04-25T21:15:29;101879.72;;;7.96
48362;BMP280;34510;51.888;5.670;2023-04-25T21:20:31;101870.81;;;8.02
48362;BMP280;34510;51.888;5.670;2023-04-25T21:25:36;101871.16;;;7.81
48362;BMP280;34510;51.888;5.670;2023-04-25T21:30:38;101881.06;;;7.74
48362;BMP280;34510;51.888;5.670;2023-04-25T21:35:42;101884.78;;;7.65
48362;BMP280;34510;51.888;5.670;2023-04-25T21:40:55;101888.09;;;7.69
48362;BMP280;34510;51.888;5.670;2023-04-25T21:45:57;101876.59;;;7.55
48362;BMP280;34510;51.888;5.670;2023-04-25T21:51:19;101894.59;;;7.59
48362;BMP280;34510;51.888;5.670;2023-04-25T21:56:29;101885.75;;;7.56
48362;BMP280;34510;51.888;5.670;2023-04-25T22:01:31;101887.31;;;7.41
48362;BMP280;34510;51.888;5.670;2023-04-25T22:06:37;101892.28;;;7.55
48362;BMP280;34510;51.888;5.670;2023-04-25T22:11:39;101887.41;;;7.49
48362;BMP280;34510;51.888;5.670;2023-04-25T22:16:43;101888.59;;;7.28
48362;BMP280;34510;51.888;5.670;2023-04-25T22:21:46;101891.91;;;7.32
48362;BMP280;34510;51.888;5.670;2023-04-25T22:26:57;101900.97;;;7.24
48362;BMP280;34510;51.888;5.670;2023-04-25T22:32:02;101904.75;;;7.23
48362;BMP280;34510;51.888;5.670;2023-04-25T22:37:04;101905.94;;;7.11
48362;BMP280;34510;51.888;5.670;2023-04-25T22:42:12;101911.44;;;7.21
48362;BMP280;34510;51.888;5.670;2023-04-25T22:47:15;101914.53;;;7.36
48362;BMP280;34510;51.888;5.670;2023-04-25T22:52:20;101916.09;;;7.20
48362;BMP280;34510;51.888;5.670;2023-04-25T22:57:22;101920.19;;;7.16
48362;BMP280;34510;51.888;5.670;2023-04-25T23:02:24;101923.22;;;7.13
48362;BMP280;34510;51.888;5.670;2023-04-25T23:07:27;101929.75;;;7.12
48362;BMP280;34510;51.888;5.670;2023-04-25T23:12:29;101919.75;;;7.11
48362;BMP280;34510;51.888;5.670;2023-04-25T23:17:31;101923.13;;;7.05
48362;BMP280;34510;51.888;5.670;2023-04-25T23:22:36;101927.47;;;6.80
48362;BMP280;34510;51.888;5.670;2023-04-25T23:27:41;101931.19;;;6.61
48362;BMP280;34510;51.888;5.670;2023-04-25T23:32:43;101929.78;;;6.38
48362;BMP280;34510;51.888;5.670;2023-04-25T23:37:46;101937.03;;;6.39
48362;BMP280;34510;51.888;5.670;2023-04-25T23:42:49;101926.50;;;6.15
48362;BMP280;34510;51.888;5.670;2023-04-25T23:47:58;101928.38;;;6.24
48362;BMP280;34510;51.888;5.670;2023-04-25T23:53:03;101919.69;;;6.19
48362;BMP280;34510;51.888;5.670;2023-04-25T23:58:05;101923.75;;;6.06
